sensor_id;sensor_type;location;lat;lon;timestamp;pressure;altitude;pressure_sealevel;temperature;humidity
85189;BME280;75559;49.132;8.922;2024-01-30T00:02:11;100687.91;;;-1.10;99.28
85189;BME280;75559;49.132;8.922;2024-01-30T00:04:36;100705.44;;;-1.06;99.43
85189;BME280;75559;49.132;8.922;2024-01-30T00:07:02;100707.22;;;-1.05;98.87
85189;BME280;75559;49.132;8.922;2024-01-30T00:09:27;100710.72;;;-1.04;98.97
85189;BME280;75559;49.132;8.922;2024-01-30T00:11:53;100627.22;;;-1.53;98.55
85189;BME280;75559;49.132;8.922;2024-01-30T00:14:18;100712.72;;;-0.97;99.19
85189;BME280;75559;49.132;8.922;2024-01-30T00:16:43;100717.25;;;-0.91;99.48
85189;BME280;75559;49.132;8.922;2024-01-30T00:19:09;100721.53;;;-0.93;99.18
85189;BME280;75559;49.132;8.922;2024-01-30T00:21:34;100701.41;;;-0.96;99.35
85189;BME280;75559;49.132;8.922;2024-01-30T00:24:00;100697.22;;;-0.91;99.45
85189;BME280;75559;49.132;8.922;2024-01-30T00:26:25;100697.19;;;-0.92;99.68
85189;BME280;75559;49.132;8.922;2024-01-30T00:28:50;100725.22;;;-0.87;99.46
85189;BME280;75559;49.132;8.922;2024-01-30T00:31:16;100715.41;;;-0.94;99.36
85189;BME280;75559;49.132;8.922;2024-01-30T00:33:41;100719.06;;;-0.89;99.25
85189;BME280;75559;49.132;8.922;2024-01-30T00:36:08;100722.72;;;-0.84;99.40
85189;BME280;75559;49.132;8.922;2024-01-30T00:38:33;100715.91;;;-0.79;99.73
85189;BME280;75559;49.132;8.922;2024-01-30T00:40:59;100721.16;;;-0.79;99.52
85189;BME280;75559;49.132;8.922;2024-01-30T00:43:24;100724.41;;;-0.86;99.65
85189;BME280;75559;49.132;8.922;2024-01-30T00:45:53;100718.19;;;-0.89;99.45
85189;BME280;75559;49.132;8.922;2024-01-30T00:48:19;100727.69;;;-0.91;99.28
85189;BME280;75559;49.132;8.922;2024-01-30T00:50:44;100731.09;;;-0.94;98.91
85189;BME280;75559;49.132;8.922;2024-01-30T00:53:10;100725.75;;;-0.97;98.90
85189;BME280;75559;49.132;8.922;2024-01-30T00:55:35;100717.84;;;-1.00;99.26
85189;BME280;75559;49.132;8.922;2024-01-30T00:58:01;100717.78;;;-1.02;99.12
85189;BME280;75559;49.132;8.922;2024-01-30T01:00:26;100722.31;;;-0.96;99.26
85189;BME280;75559;49.132;8.922;2024-01-30T01:02:55;100724.72;;;-1.02;98.93
85189;BME280;75559;49.132;8.922;2024-01-30T01:05:21;100710.56;;;-1.09;99.32
85189;BME280;75559;49.132;8.922;2024-01-30T01:07:46;100718.47;;;-1.07;99.65
85189;BME280;75559;49.132;8.922;2024-01-30T01:10:13;100718.31;;;-1.12;98.97
85189;BME280;75559;49.132;8.922;2024-01-30T01:12:39;100730.56;;;-1.09;98.85
85189;BME280;75559;49.132;8.922;2024-01-30T01:15:05;100725.25;;;-1.12;99.28
85189;BME280;75559;49.132;8.922;2024-01-30T01:17:31;100713.72;;;-1.17;99.07
85189;BME280;75559;49.132;8.922;2024-01-30T01:19:56;100725.84;;;-1.19;98.96
85189;BME280;75559;49.132;8.922;2024-01-30T01:22:22;100723.09;;;-1.24;99.13
85189;BME280;75559;49.132;8.922;2024-01-30T01:24:48;100691.19;;;-1.41;99.31
85189;BME280;75559;49.132;8.922;2024-01-30T01:27:13;100725.19;;;-1.14;99.66
85189;BME280;75559;49.132;8.922;2024-01-30T01:29:38;100721.31;;;-1.25;99.56
85189;BME280;75559;49.132;8.922;2024-01-30T01:32:04;100722.25;;;-1.23;99.63
85189;BME280;75559;49.132;8.922;2024-01-30T01:34:29;100732.53;;;-1.28;99.50
85189;BME280;75559;49.132;8.922;2024-01-30T01:36:55;100731.38;;;-1.36;99.40
85189;BME280;75559;49.132;8.922;2024-01-30T01:39:22;100729.59;;;-1.37;99.11
85189;BME280;75559;49.132;8.922;2024-01-30T01:41:51;100724.31;;;-1.38;99.05
85189;BME280;75559;49.132;8.922;2024-01-30T01:44:18;100718.84;;;-1.46;99.01
85189;BME280;75559;49.132;8.922;2024-01-30T01:46:44;100720.06;;;-1.36;99.50
85189;BME280;75559;49.132;8.922;2024-01-30T01:49:10;100731.44;;;-1.34;99.65
85189;BME280;75559;49.132;8.922;2024-01-30T01:51:36;100722.50;;;-1.41;99.55
85189;BME280;75559;49.132;8.922;2024-01-30T01:54:04;100726.00;;;-1.40;99.76
85189;BME280;75559;49.132;8.922;2024-01-30T01:56:31;100718.16;;;-1.40;99.85
85189;BME280;75559;49.132;8.922;2024-01-30T01:59:05;100700.31;;;-1.53;99.68
85189;BME280;75559;49.132;8.922;2024-01-30T02:01:33;100706.69;;;-1.45;99.99
85189;BME280;75559;49.132;8.922;2024-01-30T02:03:59;100719.16;;;-1.37;100.00
85189;BME280;75559;49.132;8.922;2024-01-30T02:06:25;100713.78;;;-1.41;99.92
85189;BME280;75559;49.132;8.922;2024-01-30T02:08:51;100712.31;;;-1.58;100.00
85189;BME280;75559;49.132;8.922;2024-01-30T02:11:17;100717.56;;;-1.57;99.89
85189;BME280;75559;49.132;8.922;2024-01-30T02:13:43;100715.06;;;-1.54;99.72
85189;BME280;75559;49.132;8.922;2024-01-30T02:16:08;100713.13;;;-1.60;99.67
85189;BME280;75559;49.132;8.922;2024-01-30T02:18:34;100710.25;;;-1.67;99.38
85189;BME280;75559;49.132;8.922;2024-01-30T02:21:04;100702.31;;;-1.70;99.61
85189;BME280;75559;49.132;8.922;2024-01-30T02:23:30;100720.03;;;-1.62;99.79
85189;BME280;75559;49.132;8.922;2024-01-30T02:25:55;100718.19;;;-1.64;99.83
85189;BME280;75559;49.132;8.922;2024-01-30T02:28:21;100710.16;;;-1.70;99.59
85189;BME280;75559;49.132;8.922;2024-01-30T02:30:46;100716.94;;;-1.74;99.12
85189;BME280;75559;49.132;8.922;2024-01-30T02:33:12;100713.44;;;-1.74;99.46
85189;BME280;75559;49.132;8.922;2024-01-30T02:35:40;100718.91;;;-1.68;99.49
85189;BME280;75559;49.132;8.922;2024-01-30T02:38:06;100696.50;;;-1.85;99.44
85189;BME280;75559;49.132;8.922;2024-01-30T02:40:31;100721.22;;;-1.76;99.27
85189;BME280;75559;49.132;8.922;2024-01-30T02:43:01;100718.66;;;-1.74;99.40
85189;BME280;75559;49.132;8.922;2024-01-30T02:45:27;100716.06;;;-1.74;99.55
85189;BME280;75559;49.132;8.922;2024-01-30T02:47:52;100725.53;;;-1.76;99.46
85189;BME280;75559;49.132;8.922;2024-01-30T02:50:21;100719.69;;;-1.71;99.42
85189;BME280;75559;49.132;8.922;2024-01-30T02:52:47;100716.94;;;-1.74;99.38
85189;BME280;75559;49.132;8.922;2024-01-30T02:55:12;100718.81;;;-1.71;99.39
85189;BME280;75559;49.132;8.922;2024-01-30T02:57:40;100717.13;;;-1.69;99.65
85189;BME280;75559;49.132;8.922;2024-01-30T03:00:06;100678.72;;;-1.97;99.37
85189;BME280;75559;49.132;8.922;2024-01-30T03:02:34;100722.00;;;-1.78;99.74
85189;BME280;75559;49.132;8.922;2024-01-30T03:04:59;100716.00;;;-1.76;99.75
85189;BME280;75559;49.132;8.922;2024-01-30T03:07:25;100712.69;;;-1.72;100.00
85189;BME280;75559;49.132;8.922;2024-01-30T03:09:50;100708.84;;;-1.81;100.00
85189;BME280;75559;49.132;8.922;2024-01-30T03:12:16;100714.88;;;-1.82;100.00
85189;BME280;75559;49.132;8.922;2024-01-30T03:14:41;100706.13;;;-1.84;100.00
85189;BME280;75559;49.132;8.922;2024-01-30T03:17:07;100710.34;;;-1.88;99.43
85189;BME280;75559;49.132;8.922;2024-01-30T03:19:32;100710.28;;;-1.89;100.00
85189;BME280;75559;49.132;8.922;2024-01-30T03:21:58;100700.69;;;-1.91;100.00
85189;BME280;75559;49.132;8.922;2024-01-30T03:24:24;100669.44;;;-2.13;99.63
85189;BME280;75559;49.132;8.922;2024-01-30T03:26:49;100704.78;;;-1.97;99.83
85189;BME280;75559;49.132;8.922;2024-01-30T03:29:18;100718.09;;;-1.89;99.34
85189;BME280;75559;49.132;8.922;2024-01-30T03:31:43;100713.94;;;-1.84;100.00
85189;BME280;75559;49.132;8.922;2024-01-30T03:34:08;100609.31;;;-2.40;99.78
85189;BME280;75559;49.132;8.922;2024-01-30T03:36:34;100667.72;;;-2.12;99.88
85189;BME280;75559;49.132;8.922;2024-01-30T03:38:59;100709.66;;;-1.82;99.69
85189;BME280;75559;49.132;8.922;2024-01-30T03:41:25;100654.56;;;-2.15;99.67
85189;BME280;75559;49.132;8.922;2024-01-30T03:43:50;100715.78;;;-1.82;99.76
85189;BME280;75559;49.132;8.922;2024-01-30T03:46:16;100717.44;;;-1.84;100.00
85189;BME280;75559;49.132;8.922;2024-01-30T03:48:42;100713.78;;;-1.89;100.00
85189;BME280;75559;49.132;8.922;2024-01-30T03:51:07;100720.72;;;-1.89;99.75
85189;BME280;75559;49.132;8.922;2024-01-30T03:53:33;100719.09;;;-1.86;100.00
85189;BME280;75559;49.132;8.922;2024-01-30T03:55:58;100695.78;;;-2.05;99.79
85189;BME280;75559;49.132;8.922;2024-01-30T03:58:23;100719.75;;;-1.92;100.00
85189;BME280;75559;49.132;8.922;2024-01-30T04:00:49;100713.56;;;-1.95;99.91
85189;BME280;75559;49.132;8.922;2024-01-30T04:03:15;100719.53;;;-1.98;100.00
85189;BME280;75559;49.132;8.922;2024-01-30T04:05:41;100708.28;;;-1.97;99.76
85189;BME280;75559;49.132;8.922;2024-01-30T04:08:07;100708.09;;;-2.01;99.79
85189;BME280;75559;49.132;8.922;2024-01-30T04:10:33;100717.66;;;-2.02;99.97
85189;BME280;75559;49.132;8.922;2024-01-30T04:12:58;100711.50;;;-2.04;100.00
85189;BME280;75559;49.132;8.922;2024-01-30T04:15:24;100717.47;;;-2.06;99.67
85189;BME280;75559;49.132;8.922;2024-01-30T04:17:50;100689.00;;;-2.24;99.63
85189;BME280;75559;49.132;8.922;2024-01-30T04:20:16;100718.06;;;-2.13;99.57
85189;BME280;75559;49.132;8.922;2024-01-30T04:22:45;100724.34;;;-2.08;99.77
85189;BME280;75559;49.132;8.922;2024-01-30T04:25:11;100721.88;;;-2.05;99.78
85189;BME280;75559;49.132;8.922;2024-01-30T04:27:40;100721.91;;;-2.04;99.89
85189;BME280;75559;49.132;8.922;2024-01-30T04:30:06;100717.47;;;-2.06;100.00
85189;BME280;75559;49.132;8.922;2024-01-30T04:32:32;100717.47;;;-2.06;99.91
85189;BME280;75559;49.132;8.922;2024-01-30T04:34:57;100724.34;;;-2.08;99.84
85189;BME280;75559;49.132;8.922;2024-01-30T04:37:23;100723.34;;;-2.12;99.82
85189;BME280;75559;49.132;8.922;2024-01-30T04:39:48;100720.84;;;-2.09;100.00
85189;BME280;75559;49.132;8.922;2024-01-30T04:42:14;100720.09;;;-2.06;100.00
85189;BME280;75559;49.132;8.922;2024-01-30T04:44:39;100720.69;;;-2.13;99.94
85189;BME280;75559;49.132;8.922;2024-01-30T04:47:04;100713.59;;;-2.17;99.85
85189;BME280;75559;49.132;8.922;2024-01-30T04:49:31;100698.31;;;-2.31;99.64
85189;BME280;75559;49.132;8.922;2024-01-30T04:51:57;100685.91;;;-2.36;100.00
85189;BME280;75559;49.132;8.922;2024-01-30T04:54:23;100723.84;;;-2.22;99.94
85189;BME280;75559;49.132;8.922;2024-01-30T04:56:48;100725.50;;;-2.24;100.00
85189;BME280;75559;49.132;8.922;2024-01-30T04:59:13;100718.63;;;-2.22;99.96
85189;BME280;75559;49.132;8.922;2024-01-30T05:01:39;100722.00;;;-2.25;99.89
85189;BME280;75559;49.132;8.922;2024-01-30T05:04:07;100728.22;;;-2.21;99.41
85189;BME280;75559;49.132;8.922;2024-01-30T05:06:32;100726.38;;;-2.24;99.53
85189;BME280;75559;49.132;8.922;2024-01-30T05:08:58;100728.22;;;-2.21;99.58
85189;BME280;75559;49.132;8.922;2024-01-30T05:11:23;100726.38;;;-2.24;99.65
85189;BME280;75559;49.132;8.922;2024-01-30T05:13:49;100721.47;;;-2.16;100.00
85189;BME280;75559;49.132;8.922;2024-01-30T05:16:14;100719.91;;;-2.11;100.00
85189;BME280;75559;49.132;8.922;2024-01-30T05:18:39;100719.97;;;-2.09;99.81
85189;BME280;75559;49.132;8.922;2024-01-30T05:21:05;100727.84;;;-2.08;99.93
85189;BME280;75559;49.132;8.922;2024-01-30T05:23:30;100728.63;;;-2.10;99.75
85189;BME280;75559;49.132;8.922;2024-01-30T05:25:56;100724.91;;;-2.17;100.00
85189;BME280;75559;49.132;8.922;2024-01-30T05:28:21;100729.03;;;-2.22;99.70
85189;BME280;75559;49.132;8.922;2024-01-30T05:30:47;100734.25;;;-2.22;99.67
85189;BME280;75559;49.132;8.922;2024-01-30T05:33:12;100739.41;;;-2.24;99.60
85189;BME280;75559;49.132;8.922;2024-01-30T05:35:38;100722.88;;;-2.24;99.87
85189;BME280;75559;49.132;8.922;2024-01-30T05:38:04;100734.19;;;-2.24;99.55
85189;BME280;75559;49.132;8.922;2024-01-30T05:40:32;100737.03;;;-2.17;99.99
85189;BME280;75559;49.132;8.922;2024-01-30T05:42:57;100738.09;;;-2.12;100.00
85189;BME280;75559;49.132;8.922;2024-01-30T05:45:27;100745.81;;;-2.15;100.00
85189;BME280;75559;49.132;8.922;2024-01-30T05:47:53;100695.09;;;-2.46;100.00
85189;BME280;75559;49.132;8.922;2024-01-30T05:50:21;100741.31;;;-2.19;99.61
85189;BME280;75559;49.132;8.922;2024-01-30T05:52:48;100742.13;;;-2.20;100.00
85189;BME280;75559;49.132;8.922;2024-01-30T05:55:14;100743.84;;;-2.21;99.70
85189;BME280;75559;49.132;8.922;2024-01-30T05:57:39;100704.69;;;-2.45;99.66
85189;BME280;75559;49.132;8.922;2024-01-30T06:00:05;100748.25;;;-2.20;100.00
85189;BME280;75559;49.132;8.922;2024-01-30T06:02:31;100727.97;;;-2.27;100.00
85189;BME280;75559;49.132;8.922;2024-01-30T06:04:56;100702.13;;;-2.43;99.87
85189;BME280;75559;49.132;8.922;2024-01-30T06:07:22;100750.78;;;-2.21;100.00
85189;BME280;75559;49.132;8.922;2024-01-30T06:09:47;100737.81;;;-2.20;99.98
85189;BME280;75559;49.132;8.922;2024-01-30T06:12:12;100749.38;;;-2.13;99.62
85189;BME280;75559;49.132;8.922;2024-01-30T06:14:38;100693.31;;;-2.47;99.68
85189;BME280;75559;49.132;8.922;2024-01-30T06:17:04;100770.03;;;-2.18;99.40
85189;BME280;75559;49.132;8.922;2024-01-30T06:19:30;100749.41;;;-2.12;100.00
85189;BME280;75559;49.132;8.922;2024-01-30T06:21:55;100746.53;;;-2.19;99.96
85189;BME280;75559;49.132;8.922;2024-01-30T06:24:20;100718.31;;;-2.30;99.74
85189;BME280;75559;49.132;8.922;2024-01-30T06:26:46;100743.16;;;-2.17;99.82
85189;BME280;75559;49.132;8.922;2024-01-30T06:29:11;100749.41;;;-2.12;99.80
85189;BME280;75559;49.132;8.922;2024-01-30T06:31:43;100750.13;;;-2.16;99.75
85189;BME280;75559;49.132;8.922;2024-01-30T06:34:09;100742.31;;;-2.16;99.98
85189;BME280;75559;49.132;8.922;2024-01-30T06:36:35;100749.25;;;-2.16;99.71
85189;BME280;75559;49.132;8.922;2024-01-30T06:39:02;100747.41;;;-2.19;99.49
85189;BME280;75559;49.132;8.922;2024-01-30T06:41:27;100747.53;;;-2.16;100.00
85189;BME280;75559;49.132;8.922;2024-01-30T06:43:52;100755.22;;;-2.19;99.85
85189;BME280;75559;49.132;8.922;2024-01-30T06:46:18;100748.34;;;-2.17;99.99
85189;BME280;75559;49.132;8.922;2024-01-30T06:48:43;100747.16;;;-2.03;99.83
85189;BME280;75559;49.132;8.922;2024-01-30T06:51:10;100744.44;;;-2.06;100.00
85189;BME280;75559;49.132;8.922;2024-01-30T06:53:35;100750.78;;;-1.99;99.79
85189;BME280;75559;49.132;8.922;2024-01-30T06:56:01;100748.22;;;-1.98;100.00
85189;BME280;75559;49.132;8.922;2024-01-30T06:58:26;100749.81;;;-2.01;99.89
85189;BME280;75559;49.132;8.922;2024-01-30T07:00:52;100756.03;;;-1.98;99.67
85189;BME280;75559;49.132;8.922;2024-01-30T07:03:17;100751.66;;;-1.99;99.87
85189;BME280;75559;49.132;8.922;2024-01-30T07:05:42;100750.72;;;-2.01;99.47
85189;BME280;75559;49.132;8.922;2024-01-30T07:08:08;100756.22;;;-1.93;99.60
85189;BME280;75559;49.132;8.922;2024-01-30T07:10:33;100763.50;;;-1.84;99.38
85189;BME280;75559;49.132;8.922;2024-01-30T07:13:00;100719.38;;;-2.02;99.04
85189;BME280;75559;49.132;8.922;2024-01-30T07:15:26;100762.06;;;-1.76;99.38
85189;BME280;75559;49.132;8.922;2024-01-30T07:17:51;100760.59;;;-1.70;98.96
85189;BME280;75559;49.132;8.922;2024-01-30T07:20:16;100758.31;;;-1.61;99.25
85189;BME280;75559;49.132;8.922;2024-01-30T07:22:45;100717.66;;;-1.78;99.03
85189;BME280;75559;49.132;8.922;2024-01-30T07:25:10;100703.84;;;-1.75;98.93
85189;BME280;75559;49.132;8.922;2024-01-30T07:27:35;100748.59;;;-1.41;99.11
85189;BME280;75559;49.132;8.922;2024-01-30T07:30:01;100737.44;;;-1.37;99.04
85189;BME280;75559;49.132;8.922;2024-01-30T07:32:27;100739.53;;;-1.27;98.98
85189;BME280;75559;49.132;8.922;2024-01-30T07:34:52;100746.31;;;-1.08;98.54
85189;BME280;75559;49.132;8.922;2024-01-30T07:37:18;100744.88;;;-0.98;98.25
85189;BME280;75559;49.132;8.922;2024-01-30T07:39:44;100747.03;;;-0.86;97.98
85189;BME280;75559;49.132;8.922;2024-01-30T07:42:10;100748.25;;;-0.75;97.67
85189;BME280;75559;49.132;8.922;2024-01-30T07:44:35;100743.47;;;-0.61;97.64
85189;BME280;75559;49.132;8.922;2024-01-30T07:47:01;100753.16;;;-0.32;97.29
85189;BME280;75559;49.132;8.922;2024-01-30T07:49:28;100747.94;;;-0.04;96.28
85189;BME280;75559;49.132;8.922;2024-01-30T07:51:53;100763.06;;;0.35;95.99
85189;BME280;75559;49.132;8.922;2024-01-30T07:54:18;100719.16;;;0.56;95.82
85189;BME280;75559;49.132;8.922;2024-01-30T07:56:44;100752.28;;;0.86;92.55
85189;BME280;75559;49.132;8.922;2024-01-30T07:59:10;100748.41;;;1.05;93.89
85189;BME280;75559;49.132;8.922;2024-01-30T08:01:36;100755.50;;;1.09;90.04
85189;BME280;75559;49.132;8.922;2024-01-30T08:04:02;100752.81;;;1.40;91.38
85189;BME280;75559;49.132;8.922;2024-01-30T08:06:27;100756.00;;;1.63;90.93
85189;BME280;75559;49.132;8.922;2024-01-30T08:08:52;100757.84;;;1.67;90.05
85189;BME280;75559;49.132;8.922;2024-01-30T08:11:20;100756.41;;;1.80;90.31
85189;BME280;75559;49.132;8.922;2024-01-30T08:13:51;100761.81;;;2.27;86.95
85189;BME280;75559;49.132;8.922;2024-01-30T08:16:16;100750.34;;;3.09;85.42
85189;BME280;75559;49.132;8.922;2024-01-30T08:18:41;100751.56;;;3.82;83.53
85189;BME280;75559;49.132;8.922;2024-01-30T08:21:07;100761.84;;;4.24;82.61
85189;BME280;75559;49.132;8.922;2024-01-30T08:23:33;100762.81;;;4.29;80.53
85189;BME280;75559;49.132;8.922;2024-01-30T08:25:58;100762.16;;;4.49;80.02
85189;BME280;75559;49.132;8.922;2024-01-30T08:28:23;100769.53;;;4.07;79.71
85189;BME280;75559;49.132;8.922;2024-01-30T08:30:49;100775.06;;;3.70;81.34
85189;BME280;75559;49.132;8.922;2024-01-30T08:33:14;100774.50;;;3.36;80.53
85189;BME280;75559;49.132;8.922;2024-01-30T08:35:40;100771.91;;;3.39;83.34
85189;BME280;75559;49.132;8.922;2024-01-30T08:38:05;100778.03;;;3.38;84.02
85189;BME280;75559;49.132;8.922;2024-01-30T08:40:30;100771.72;;;3.27;84.12
85189;BME280;75559;49.132;8.922;2024-01-30T08:42:56;100779.56;;;3.26;85.02
85189;BME280;75559;49.132;8.922;2024-01-30T08:45:21;100779.47;;;3.20;85.04
85189;BME280;75559;49.132;8.922;2024-01-30T08:47:46;100778.88;;;3.36;86.95
85189;BME280;75559;49.132;8.922;2024-01-30T08:50:12;100776.03;;;3.24;84.09
85189;BME280;75559;49.132;8.922;2024-01-30T08:52:37;100752.84;;;3.51;83.15
85189;BME280;75559;49.132;8.922;2024-01-30T08:55:03;100765.75;;;4.54;81.78
85189;BME280;75559;49.132;8.922;2024-01-30T08:57:29;100730.69;;;4.62;76.87
85189;BME280;75559;49.132;8.922;2024-01-30T08:59:55;100768.00;;;4.94;77.24
85189;BME280;75559;49.132;8.922;2024-01-30T09:02:21;100740.97;;;5.20;77.87
85189;BME280;75559;49.132;8.922;2024-01-30T09:04:46;100774.59;;;6.53;72.82
85189;BME280;75559;49.132;8.922;2024-01-30T09:07:12;100781.81;;;6.96;69.84
85189;BME280;75559;49.132;8.922;2024-01-30T09:09:39;100783.38;;;6.52;69.20
85189;BME280;75559;49.132;8.922;2024-01-30T09:12:06;100780.47;;;6.08;72.23
85189;BME280;75559;49.132;8.922;2024-01-30T09:14:34;100788.81;;;5.52;74.38
85189;BME280;75559;49.132;8.922;2024-01-30T09:17:00;100786.13;;;5.47;74.95
85189;BME280;75559;49.132;8.922;2024-01-30T09:19:25;100778.00;;;5.24;75.50
85189;BME280;75559;49.132;8.922;2024-01-30T09:21:53;100778.28;;;5.58;74.83
85189;BME280;75559;49.132;8.922;2024-01-30T09:24:18;100770.72;;;5.94;74.96
85189;BME280;75559;49.132;8.922;2024-01-30T09:26:44;100753.13;;;5.99;73.54
85189;BME280;75559;49.132;8.922;2024-01-30T09:29:09;100781.41;;;6.17;71.58
85189;BME280;75559;49.132;8.922;2024-01-30T09:31:35;100776.06;;;6.07;72.35
85189;BME280;75559;49.132;8.922;2024-01-30T09:34:00;100780.25;;;5.79;73.91
85189;BME280;75559;49.132;8.922;2024-01-30T09:36:26;100782.44;;;5.30;76.04
85189;BME280;75559;49.132;8.922;2024-01-30T09:38:51;100771.00;;;5.29;75.66
85189;BME280;75559;49.132;8.922;2024-01-30T09:41:19;100781.41;;;5.16;76.16
85189;BME280;75559;49.132;8.922;2024-01-30T09:43:47;100770.47;;;4.79;77.25
85189;BME280;75559;49.132;8.922;2024-01-30T09:46:17;100786.19;;;4.70;79.28
85189;BME280;75559;49.132;8.922;2024-01-30T09:48:49;100788.91;;;4.79;79.32
85189;BME280;75559;49.132;8.922;2024-01-30T09:51:15;100796.75;;;4.73;78.58
85189;BME280;75559;49.132;8.922;2024-01-30T09:53:42;100807.97;;;4.58;80.15
85189;BME280;75559;49.132;8.922;2024-01-30T09:56:09;100810.34;;;4.38;81.34
85189;BME280;75559;49.132;8.922;2024-01-30T09:58:36;100813.88;;;4.40;82.47
85189;BME280;75559;49.132;8.922;2024-01-30T10:01:01;100786.63;;;4.38;81.34
85189;BME280;75559;49.132;8.922;2024-01-30T10:03:27;100799.22;;;4.61;81.04
85189;BME280;75559;49.132;8.922;2024-01-30T10:05:54;100801.09;;;4.68;81.91
85189;BME280;75559;49.132;8.922;2024-01-30T10:08:20;100770.44;;;4.76;82.05
85189;BME280;75559;49.132;8.922;2024-01-30T10:10:49;100793.59;;;5.03;81.72
85189;BME280;75559;49.132;8.922;2024-01-30T10:13:15;100792.78;;;5.12;81.17
85189;BME280;75559;49.132;8.922;2024-01-30T10:15:41;100794.75;;;5.28;80.76
85189;BME280;75559;49.132;8.922;2024-01-30T10:18:06;100791.47;;;5.55;79.90
85189;BME280;75559;49.132;8.922;2024-01-30T10:20:33;100769.19;;;5.24;78.90
85189;BME280;75559;49.132;8.922;2024-01-30T10:22:59;100765.78;;;5.35;79.38
85189;BME280;75559;49.132;8.922;2024-01-30T10:25:25;100791.47;;;5.56;78.86
85189;BME280;75559;49.132;8.922;2024-01-30T10:27:54;100784.34;;;5.45;78.86
85189;BME280;75559;49.132;8.922;2024-01-30T10:30:23;100779.16;;;5.55;78.87
85189;BME280;75559;49.132;8.922;2024-01-30T10:32:49;100787.91;;;5.50;79.11
85189;BME280;75559;49.132;8.922;2024-01-30T10:35:15;100788.13;;;5.77;79.39
85189;BME280;75559;49.132;8.922;2024-01-30T10:37:43;100786.56;;;5.93;78.43
85189;BME280;75559;49.132;8.922;2024-01-30T10:40:12;100758.38;;;5.93;77.90
85189;BME280;75559;49.132;8.922;2024-01-30T10:42:42;100787.47;;;5.99;77.96
85189;BME280;75559;49.132;8.922;2024-01-30T10:45:14;100784.88;;;6.09;77.39
85189;BME280;75559;49.132;8.922;2024-01-30T10:47:50;100785.81;;;6.17;77.65
85189;BME280;75559;49.132;8.922;2024-01-30T10:50:15;100779.63;;;6.13;77.69
85189;BME280;75559;49.132;8.922;2024-01-30T10:52:41;100777.97;;;6.32;76.13
85189;BME280;75559;49.132;8.922;2024-01-30T10:55:08;100779.72;;;6.31;75.73
85189;BME280;75559;49.132;8.922;2024-01-30T10:57:37;100778.94;;;6.39;76.48
85189;BME280;75559;49.132;8.922;2024-01-30T11:00:11;100746.91;;;5.90;77.83
85189;BME280;75559;49.132;8.922;2024-01-30T11:02:43;100785.72;;;5.98;79.01
85189;BME280;75559;49.132;8.922;2024-01-30T11:05:10;100766.34;;;6.02;79.10
85189;BME280;75559;49.132;8.922;2024-01-30T11:07:36;100785.88;;;6.24;76.71
85189;BME280;75559;49.132;8.922;2024-01-30T11:10:04;100778.03;;;6.40;76.20
85189;BME280;75559;49.132;8.922;2024-01-30T11:12:37;100790.31;;;6.31;76.64
85189;BME280;75559;49.132;8.922;2024-01-30T11:20:25;100776.09;;;6.10;79.19
85189;BME280;75559;49.132;8.922;2024-01-30T11:22:52;100786.69;;;6.14;79.29
85189;BME280;75559;49.132;8.922;2024-01-30T11:25:20;100786.00;;;6.43;76.66
85189;BME280;75559;49.132;8.922;2024-01-30T11:27:46;100781.63;;;6.52;77.02
85189;BME280;75559;49.132;8.922;2024-01-30T11:32:57;100769.41;;;6.85;75.59
85189;BME280;75559;49.132;8.922;2024-01-30T11:35:24;100771.28;;;7.22;74.08
85189;BME280;75559;49.132;8.922;2024-01-30T11:37:49;100773.94;;;7.42;74.08
85189;BME280;75559;49.132;8.922;2024-01-30T11:40:16;100758.97;;;7.64;72.47
85189;BME280;75559;49.132;8.922;2024-01-30T11:42:42;100766.03;;;7.74;71.34
85189;BME280;75559;49.132;8.922;2024-01-30T11:45:08;100756.28;;;7.94;72.08
85189;BME280;75559;49.132;8.922;2024-01-30T11:47:37;100757.16;;;8.06;71.34
85189;BME280;75559;49.132;8.922;2024-01-30T11:50:04;100751.91;;;7.78;72.97
85189;BME280;75559;49.132;8.922;2024-01-30T11:52:31;100748.34;;;8.10;70.85
85189;BME280;75559;49.132;8.922;2024-01-30T11:54:58;100748.31;;;8.16;70.77
85189;BME280;75559;49.132;8.922;2024-01-30T11:57:23;100746.56;;;8.00;72.51
85189;BME280;75559;49.132;8.922;2024-01-30T11:59:48;100743.03;;;8.13;71.69
85189;BME280;75559;49.132;8.922;2024-01-30T12:02:17;100741.28;;;7.90;72.64
85189;BME280;75559;49.132;8.922;2024-01-30T12:04:42;100730.66;;;7.97;71.49
85189;BME280;75559;49.132;8.922;2024-01-30T12:07:08;100734.19;;;8.09;71.46
85189;BME280;75559;49.132;8.922;2024-01-30T12:09:33;100723.59;;;8.09;70.98
85189;BME280;75559;49.132;8.922;2024-01-30T12:11:59;100723.53;;;8.26;70.44
85189;BME280;75559;49.132;8.922;2024-01-30T12:14:25;100725.34;;;8.06;71.61
85189;BME280;75559;49.132;8.922;2024-01-30T12:16:51;100728.91;;;7.86;72.19
85189;BME280;75559;49.132;8.922;2024-01-30T12:19:25;100737.69;;;8.23;72.63
85189;BME280;75559;49.132;8.922;2024-01-30T12:21:55;100723.50;;;8.43;71.71
85189;BME280;75559;49.132;8.922;2024-01-30T12:24:22;100715.59;;;8.23;71.93
85189;BME280;75559;49.132;8.922;2024-01-30T12:26:47;100705.81;;;8.46;71.68
85189;BME280;75559;49.132;8.922;2024-01-30T12:29:14;100699.59;;;8.49;70.87
85189;BME280;75559;49.132;8.922;2024-01-30T12:31:42;100714.59;;;8.61;69.84
85189;BME280;75559;49.132;8.922;2024-01-30T12:34:07;100720.84;;;8.49;70.46
85189;BME280;75559;49.132;8.922;2024-01-30T12:36:34;100717.41;;;8.13;71.41
85189;BME280;75559;49.132;8.922;2024-01-30T12:39:00;100696.22;;;7.95;71.53
85189;BME280;75559;49.132;8.922;2024-01-30T12:41:26;100710.25;;;8.32;70.62
85189;BME280;75559;49.132;8.922;2024-01-30T12:43:55;100702.28;;;8.46;71.27
85189;BME280;75559;49.132;8.922;2024-01-30T12:46:27;100701.28;;;8.70;69.10
85189;BME280;75559;49.132;8.922;2024-01-30T12:48:54;100695.00;;;8.84;69.53
85189;BME280;75559;49.132;8.922;2024-01-30T12:51:19;100696.47;;;9.31;69.19
85189;BME280;75559;49.132;8.922;2024-01-30T12:53:44;100686.00;;;10.06;66.60
85189;BME280;75559;49.132;8.922;2024-01-30T12:56:12;100655.25;;;9.79;66.38